Time;durP1;ratioP1;P1;durP2;ratioP2;P2;SDS_P1;SDS_P2;PMS_P1;PMS_P2;Temp;Humidity;BMP_temperature;BMP_pressure;BME280_temperature;BME280_humidity;BME280_pressure;Samples;Min_cycle;Max_cycle;Signal;HPM_P1;HPM_P2
2022/10/10 00:02:40;;;;;;;12.90;7.03;;;15.90;99.90;;;;;;1888602;75;21099;-85
2022/10/10 00:12:58;;;;;;;10.13;6.65;;;15.80;99.90;;;;;;1957024;72;22256;-85
2022/10/10 00:24:27;;;;;;;;;;;;;;;;;;;;;
2022/10/10 00:31:24;;;;;;;9.33;7.83;;;15.60;99.90;;;;;;1917599;75;21110;-85
2022/10/10 00:34:47;;;;;;;8.00;6.90;;;15.60;99.90;;;;;;1891640;75;21074;-85
2022/10/10 00:42:07;;;;;;;8.33;6.90;;;15.60;99.90;;;;;;1895431;75;21062;-85
2022/10/10 00:45:34;;;;;;;10.33;7.67;;;15.60;99.90;;;;;;1917791;75;21112;-85
2022/10/10 00:52:08;;;;;;;12.53;8.53;;;15.70;99.90;;;;;;2076855;68;22169;-85
2022/10/10 00:56:00;;;;;;;10.50;8.08;;;15.70;99.90;;;;;;2010743;70;21073;-86
2022/10/10 01:02:43;;;;;;;9.20;7.85;;;15.60;99.90;;;;;;1943805;72;22428;-85
2022/10/10 01:06:06;;;;;;;9.55;7.67;;;15.60;99.90;;;;;;1834548;75;21123;-85
2022/10/10 01:09:02;;;;;;;8.30;7.35;;;15.60;99.90;;;;;;1917481;75;21138;-85
2022/10/10 01:15:00;;;;;;;7.62;6.58;;;15.60;99.90;;;;;;1950527;72;22123;-85
2022/10/10 01:18:22;;;;;;;7.95;6.62;;;15.60;99.90;;;;;;1906609;75;21124;-85
2022/10/10 01:22:00;;;;;;;7.05;6.35;;;15.60;99.90;;;;;;1906634;75;21090;-85
2022/10/10 01:25:24;;;;;;;7.10;6.40;;;15.60;99.90;;;;;;1854153;76;21112;-86
2022/10/10 01:28:55;;;;;;;6.95;6.25;;;15.60;99.90;;;;;;1817055;77;21204;-85
2022/10/10 01:32:06;;;;;;;6.37;5.78;;;15.60;99.90;;;;;;1898544;75;21059;-85
2022/10/10 01:35:29;;;;;;;6.35;5.75;;;15.50;99.90;;;;;;1904173;75;21048;-86
2022/10/10 01:38:59;;;;;;;6.95;5.60;;;15.50;99.90;;;;;;1884381;76;21059;-85
2022/10/10 01:41:53;;;;;;;5.65;5.15;;;15.40;99.90;;;;;;1902742;75;21069;-85
2022/10/10 01:44:46;;;;;;;6.03;5.42;;;15.40;99.90;;;;;;1898775;75;21095;-86
2022/10/10 02:01:41;;;;;;;5.78;5.25;;;15.40;99.90;;;;;;1947621;72;22530;-85
2022/10/10 02:04:51;;;;;;;6.33;5.42;;;15.40;99.90;;;;;;1873864;75;21098;-85
2022/10/10 02:08:24;;;;;;;6.72;6.10;;;15.40;99.90;;;;;;1894152;75;21048;-85
2022/10/10 02:11:54;;;;;;;6.35;5.70;;;15.40;99.90;;;;;;1894557;75;21078;-85
2022/10/10 02:15:09;;;;;;;6.37;5.42;;;15.40;99.90;;;;;;1894301;75;21156;-85
2022/10/10 02:22:01;;;;;;;;;;;;;;;;;;;;;
2022/10/10 02:25:14;;;;;;;6.15;4.80;;;15.30;99.90;;;;;;1894393;75;21114;-85
2022/10/10 02:28:26;;;;;;;5.30;4.80;;;15.30;99.90;;;;;;1904523;75;21532;-86
2022/10/10 02:32:00;;;;;;;5.55;4.92;;;15.30;99.90;;;;;;1883431;75;21055;-85
2022/10/10 02:39:07;;;;;;;5.72;4.90;;;15.20;99.90;;;;;;1837654;78;21114;-85
2022/10/10 02:42:11;;;;;;;7.10;4.80;;;15.30;99.90;;;;;;1894179;75;21160;-86
2022/10/10 02:45:03;;;;;;;4.92;4.30;;;15.40;99.90;;;;;;1891053;75;21456;-85
2022/10/10 02:48:15;;;;;;;5.20;4.70;;;15.40;99.90;;;;;;1886817;75;21225;-86
2022/10/10 02:51:27;;;;;;;6.22;4.35;;;15.40;99.90;;;;;;1872637;76;21543;-86
2022/10/10 02:57:26;;;;;;;6.03;4.60;;;15.20;99.90;;;;;;1956241;72;22181;-85
2022/10/10 03:00:58;;;;;;;5.70;5.10;;;15.20;99.90;;;;;;1916427;74;21124;-85
2022/10/10 03:04:13;;;;;;;5.10;4.33;;;15.20;99.90;;;;;;1937905;74;21047;-87
2022/10/10 03:07:40;;;;;;;5.20;4.70;;;15.20;99.90;;;;;;1887470;75;21146;-85
2022/10/10 03:10:51;;;;;;;5.78;5.20;;;15.20;99.90;;;;;;1855072;76;21123;-85
2022/10/10 03:14:17;;;;;;;;;;;;;;;;;;;;;
2022/10/10 03:17:45;;;;;;;5.78;5.22;;;15.20;99.90;;;;;;1885775;75;21124;-85
2022/10/10 03:21:23;;;;;;;10.03;4.65;;;15.20;99.90;;;;;;1872956;76;21433;-85
2022/10/10 03:24:27;;;;;;;5.17;4.67;;;15.20;99.90;;;;;;1874114;76;21230;-85
2022/10/10 03:27:30;;;;;;;5.20;4.70;;;15.10;99.90;;;;;;1872737;76;21068;-85
2022/10/10 03:30:56;;;;;;;5.03;4.53;;;15.10;99.90;;;;;;1905585;74;21119;-85
2022/10/10 03:37:07;;;;;;;4.45;4.00;;;15.10;99.90;;;;;;1954398;72;22066;-85
2022/10/10 03:40:18;;;;;;;4.42;4.03;;;15.10;99.90;;;;;;1899990;75;21561;-85
2022/10/10 03:43:45;;;;;;;4.45;4.03;;;15.00;99.90;;;;;;1902092;75;21181;-85
2022/10/10 03:46:47;;;;;;;5.45;4.03;;;14.90;99.90;;;;;;1902123;75;21042;-86
2022/10/10 03:49:47;;;;;;;5.00;4.50;;;15.00;99.90;;;;;;1884471;75;21190;-86
2022/10/10 03:52:57;;;;;;;5.08;4.45;;;14.90;99.90;;;;;;1895249;75;21123;-85
2022/10/10 03:59:38;;;;;;;;;;;;;;;;;;;;;
2022/10/10 04:06:08;;;;;;;6.53;5.25;;;14.70;99.90;;;;;;1941596;72;22207;-85
2022/10/10 04:09:26;;;;;;;5.97;5.37;;;14.70;99.90;;;;;;1951025;73;21047;-85
2022/10/10 04:12:22;;;;;;;7.53;5.33;;;14.70;99.90;;;;;;1917510;75;21071;-86
2022/10/10 04:15:14;;;;;;;10.35;5.78;;;14.80;99.90;;;;;;1940371;73;21054;-86
2022/10/10 04:18:05;;;;;;;9.13;6.33;;;14.80;99.90;;;;;;1917696;75;21106;-85
2022/10/10 04:20:57;;;;;;;9.80;6.37;;;14.80;99.90;;;;;;1939273;73;21189;-85
2022/10/10 04:23:48;;;;;;;9.00;6.40;;;14.90;99.90;;;;;;1933965;73;21156;-85
2022/10/10 04:26:40;;;;;;;6.85;5.85;;;14.90;99.90;;;;;;1917650;73;21168;-85
2022/10/10 04:30:04;;;;;;;;;;;14.90;99.90;;;;;;1920238;75;21116;-85
2022/10/10 04:33:25;;;;;;;7.75;5.67;;;14.90;99.90;;;;;;1917425;75;20243;-86
2022/10/10 04:36:31;;;;;;;5.90;5.10;;;14.90;99.90;;;;;;1939781;73;21115;-85
2022/10/10 04:45:40;;;;;;;5.50;4.83;;;14.90;99.90;;;;;;1951357;72;22135;-85
2022/10/10 04:48:58;;;;;;;6.65;5.58;;;14.90;99.90;;;;;;1917268;75;21106;-85
2022/10/10 04:52:03;;;;;;;6.00;5.15;;;14.90;99.90;;;;;;1888502;75;21087;-87
2022/10/10 04:58:31;;;;;;;6.78;6.12;;;14.90;99.90;;;;;;1953821;72;22118;-87
2022/10/10 05:01:44;;;;;;;;;;;15.00;99.90;;;;;;1916781;74;21086;-85
2022/10/10 05:04:40;;;;;;;5.65;4.55;;;15.00;99.90;;;;;;1903523;75;20113;-85
2022/10/10 05:07:34;;;;;;;6.08;4.72;;;15.00;99.90;;;;;;1904203;75;21092;-86
2022/10/10 05:10:26;;;;;;;6.92;4.60;;;15.00;99.90;;;;;;1885948;76;21105;-86
2022/10/10 05:13:18;;;;;;;6.25;5.12;;;15.10;99.90;;;;;;1884952;76;21091;-86
2022/10/10 05:16:09;;;;;;;7.72;6.00;;;15.10;99.90;;;;;;1884822;76;21102;-85
2022/10/10 05:19:01;;;;;;;7.97;6.47;;;15.10;99.90;;;;;;1899618;75;21168;-86
2022/10/10 05:21:52;;;;;;;9.00;6.45;;;15.10;99.90;;;;;;1906163;75;21201;-85
2022/10/10 05:24:43;;;;;;;9.00;7.00;;;15.10;99.90;;;;;;1892123;74;21046;-86
2022/10/10 05:27:34;;;;;;;10.08;6.55;;;15.10;99.90;;;;;;1918969;74;21060;-86
2022/10/10 05:30:26;;;;;;;7.28;5.15;;;15.20;99.90;;;;;;1902486;75;21110;-85
2022/10/10 05:33:17;;;;;;;7.72;5.40;;;15.20;99.90;;;;;;1897260;75;21058;-86
2022/10/10 05:36:11;;;;;;;7.42;5.65;;;15.30;99.90;;;;;;1895533;75;21095;-86
2022/10/10 05:39:03;;;;;;;13.95;7.17;;;15.30;99.90;;;;;;1895621;75;21063;-86
2022/10/10 05:41:54;;;;;;;7.90;6.22;;;15.30;99.90;;;;;;1917832;75;21098;-86
2022/10/10 05:44:46;;;;;;;7.67;5.95;;;15.30;99.90;;;;;;1898767;75;21178;-86
2022/10/10 05:47:38;;;;;;;9.48;6.37;;;15.40;99.90;;;;;;1895785;75;21082;-85
2022/10/10 05:53:14;;;;;;;10.88;7.72;;;15.40;99.90;;;;;;1959722;72;29192;-85
2022/10/10 05:56:06;;;;;;;9.73;7.17;;;15.60;99.90;;;;;;1931238;73;21120;-86
2022/10/10 05:58:58;;;;;;;10.82;7.30;;;15.50;99.90;;;;;;1883436;75;21831;-85
2022/10/10 06:01:49;;;;;;;10.20;7.03;;;15.50;99.90;;;;;;1917745;75;21040;-86
2022/10/10 06:04:41;;;;;;;11.05;6.90;;;15.50;99.90;;;;;;1938102;73;21048;-86
2022/10/10 06:07:33;;;;;;;10.18;7.37;;;15.50;99.90;;;;;;1917570;75;21046;-86
2022/10/10 06:10:26;;;;;;;8.60;7.03;;;15.50;99.90;;;;;;1917460;75;21058;-86
2022/10/10 06:13:18;;;;;;;9.65;7.33;;;15.50;99.90;;;;;;1917494;75;21052;-86
2022/10/10 06:16:11;;;;;;;11.45;7.20;;;15.50;99.90;;;;;;1917676;75;21573;-86
2022/10/10 06:19:03;;;;;;;12.13;7.92;;;15.50;99.90;;;;;;1917787;75;21302;-85
2022/10/10 06:21:55;;;;;;;10.98;7.78;;;15.60;99.90;;;;;;1930229;73;21168;-86
2022/10/10 06:24:47;;;;;;;11.97;8.20;;;15.60;99.90;;;;;;1921653;73;21510;-86
2022/10/10 06:27:41;;;;;;;15.13;9.25;;;15.60;99.90;;;;;;1917757;75;21050;-86
2022/10/10 06:30:33;;;;;;;13.32;8.45;;;15.60;99.90;;;;;;1917548;75;21072;-85
2022/10/10 06:33:25;;;;;;;11.83;8.58;;;15.60;99.90;;;;;;1917998;75;21051;-85
2022/10/10 06:36:17;;;;;;;18.52;8.88;;;15.60;99.90;;;;;;1917469;75;21082;-85
2022/10/10 06:39:09;;;;;;;12.55;8.43;;;15.60;99.90;;;;;;1917732;75;21132;-85
2022/10/10 06:42:01;;;;;;;14.95;9.08;;;15.60;99.90;;;;;;1917503;75;21090;-85
2022/10/10 06:44:53;;;;;;;13.22;8.40;;;15.60;99.90;;;;;;1943495;73;21059;-86
2022/10/10 06:47:44;;;;;;;10.98;7.55;;;15.70;99.90;;;;;;1928619;73;21051;-87
2022/10/10 06:50:37;;;;;;;11.43;7.03;;;15.70;99.90;;;;;;1924351;73;21061;-85
2022/10/10 06:53:29;;;;;;;11.20;7.08;;;15.70;99.90;;;;;;1917921;74;21125;-86
2022/10/10 06:56:21;;;;;;;16.10;7.20;;;15.80;99.90;;;;;;1917638;75;21066;-86
2022/10/10 06:59:13;;;;;;;12.90;7.35;;;15.80;99.90;;;;;;1907915;75;21071;-85
2022/10/10 07:02:05;;;;;;;9.20;6.62;;;15.80;99.90;;;;;;1927511;74;21178;-86
2022/10/10 07:04:57;;;;;;;12.18;6.95;;;15.80;99.90;;;;;;1918711;73;21056;-86
2022/10/10 07:07:50;;;;;;;11.28;6.83;;;15.70;99.90;;;;;;1932119;73;21068;-86
2022/10/10 07:13:23;;;;;;;13.03;7.60;;;15.80;99.90;;;;;;1953832;72;22229;-85
2022/10/10 07:16:15;;;;;;;11.93;7.87;;;15.90;99.90;;;;;;1917498;75;21088;-86
2022/10/10 07:19:07;;;;;;;15.30;8.00;;;16.00;99.90;;;;;;1902062;75;21062;-86
2022/10/10 07:21:59;;;;;;;12.10;7.70;;;15.90;99.90;;;;;;1885109;75;21055;-86
2022/10/10 07:24:51;;;;;;;11.93;7.83;;;15.90;99.90;;;;;;1906985;75;21128;-86
2022/10/10 07:27:43;;;;;;;12.68;8.03;;;15.80;99.90;;;;;;1884852;75;21061;-86
2022/10/10 07:30:39;;;;;;;14.18;8.75;;;15.90;99.90;;;;;;1905124;75;21118;-86
2022/10/10 07:33:34;;;;;;;11.55;7.60;;;16.00;99.90;;;;;;1902410;75;21066;-86
2022/10/10 07:36:26;;;;;;;12.80;7.33;;;16.10;99.90;;;;;;1917468;75;21113;-86
2022/10/10 07:39:22;;;;;;;11.45;7.83;;;16.20;99.90;;;;;;1911984;75;21110;-85
2022/10/10 07:42:13;;;;;;;11.22;7.60;;;16.30;99.90;;;;;;1908135;75;21047;-86
2022/10/10 07:45:08;;;;;;;14.45;7.37;;;16.40;99.90;;;;;;1899702;75;21114;-85
2022/10/10 07:48:00;;;;;;;14.03;7.33;;;16.40;99.90;;;;;;1898181;75;21108;-86
2022/10/10 07:50:52;;;;;;;13.72;8.13;;;16.60;99.90;;;;;;1895908;75;21185;-86
2022/10/10 07:53:44;;;;;;;11.53;7.00;;;16.60;99.90;;;;;;1895737;75;21055;-85
2022/10/10 07:56:38;;;;;;;8.60;6.70;;;16.60;99.90;;;;;;1896916;75;21071;-87
2022/10/10 07:59:33;;;;;;;9.73;7.08;;;16.60;99.90;;;;;;1900243;75;21572;-85
2022/10/10 08:02:27;;;;;;;9.20;7.30;;;16.60;99.90;;;;;;1896445;75;21117;-86
2022/10/10 08:05:18;;;;;;;11.65;7.22;;;16.60;99.90;;;;;;1895644;75;21121;-85
2022/10/10 08:08:11;;;;;;;10.53;7.65;;;16.60;99.90;;;;;;1893893;75;21554;-86
2022/10/10 08:11:05;;;;;;;11.38;7.40;;;16.60;99.90;;;;;;1903577;75;21051;-86
2022/10/10 08:13:58;;;;;;;11.22;7.50;;;16.80;99.90;;;;;;1903488;74;21075;-86
2022/10/10 08:16:49;;;;;;;9.30;7.08;;;16.80;99.90;;;;;;1894005;75;21048;-86
2022/10/10 08:19:41;;;;;;;8.20;6.45;;;16.80;99.90;;;;;;1914044;75;21055;-85
2022/10/10 08:22:35;;;;;;;9.33;7.05;;;16.90;99.90;;;;;;1884767;76;21110;-85
2022/10/10 08:25:27;;;;;;;8.53;6.12;;;16.90;99.90;;;;;;1900519;75;21152;-86
2022/10/10 08:28:18;;;;;;;6.58;5.67;;;16.90;99.90;;;;;;1895716;75;21043;-86
2022/10/10 08:31:12;;;;;;;6.85;5.33;;;17.00;99.90;;;;;;1894797;75;21110;-85
2022/10/10 08:34:08;;;;;;;6.05;4.97;;;17.10;99.90;;;;;;1895273;75;21243;-85
2022/10/10 08:37:07;;;;;;;6.83;5.50;;;17.20;99.90;;;;;;1897480;75;21108;-85
2022/10/10 08:40:00;;;;;;;9.35;4.50;;;17.20;99.90;;;;;;1900446;75;21132;-86
2022/10/10 08:42:56;;;;;;;4.78;4.22;;;17.30;99.90;;;;;;1895607;75;21052;-85
2022/10/10 08:45:49;;;;;;;4.72;3.50;;;17.30;99.90;;;;;;1911348;75;21125;-86
2022/10/10 08:48:42;;;;;;;5.67;3.42;;;17.30;99.90;;;;;;1887265;75;21113;-86
2022/10/10 08:51:35;;;;;;;5.97;4.08;;;17.30;99.90;;;;;;1917150;75;21120;-86
2022/10/10 08:54:28;;;;;;;6.97;4.28;;;17.30;99.90;;;;;;1898603;75;21121;-86
2022/10/10 08:57:25;;;;;;;5.47;3.85;;;17.30;99.90;;;;;;1907802;75;21051;-86
2022/10/10 09:00:21;;;;;;;4.57;4.10;;;17.40;99.90;;;;;;1906510;75;21077;-85
2022/10/10 09:03:21;;;;;;;6.15;4.12;;;17.40;99.90;;;;;;1885026;75;21067;-86
2022/10/10 09:06:23;;;;;;;6.15;3.58;;;17.40;99.90;;;;;;1897333;75;21055;-86
2022/10/10 09:09:19;;;;;;;4.30;2.98;;;17.50;99.90;;;;;;1883986;75;21047;-86
2022/10/10 09:12:17;;;;;;;4.20;3.22;;;17.40;99.90;;;;;;1916910;75;21039;-86
2022/10/10 09:15:15;;;;;;;4.22;3.10;;;17.50;99.90;;;;;;1895022;74;21082;-86
2022/10/10 09:18:13;;;;;;;3.45;2.87;;;17.50;99.90;;;;;;1915772;74;21090;-86
2022/10/10 09:21:11;;;;;;;3.00;2.70;;;17.50;99.90;;;;;;1916908;74;21042;-86
2022/10/10 09:24:08;;;;;;;6.25;3.87;;;17.60;99.90;;;;;;1907083;74;21175;-85
2022/10/10 09:27:04;;;;;;;4.95;3.05;;;17.60;99.90;;;;;;1893620;74;21064;-85
2022/10/10 09:30:01;;;;;;;4.95;2.20;;;17.70;99.90;;;;;;1893673;76;21106;-86
2022/10/10 09:32:56;;;;;;;3.52;2.50;;;17.70;99.90;;;;;;1915892;74;21106;-86
2022/10/10 09:35:50;;;;;;;3.62;2.62;;;17.80;99.90;;;;;;1915782;74;21218;-85
2022/10/10 09:38:47;;;;;;;3.12;2.30;;;17.80;99.90;;;;;;1877833;76;21054;-85
2022/10/10 09:41:50;;;;;;;2.80;2.45;;;17.90;99.90;;;;;;1909616;74;21050;-86
2022/10/10 09:44:51;;;;;;;5.12;3.08;;;18.00;99.90;;;;;;1879536;76;21414;-86
2022/10/10 09:47:44;;;;;;;3.45;2.52;;;18.00;99.90;;;;;;1916005;74;21056;-86
2022/10/10 09:50:44;;;;;;;2.87;2.30;;;18.00;99.90;;;;;;1915864;74;21218;-86
2022/10/10 09:53:39;;;;;;;3.80;1.95;;;18.10;99.90;;;;;;1900779;74;21094;-86
2022/10/10 09:56:34;;;;;;;2.40;2.20;;;18.20;99.90;;;;;;1906597;74;21120;-86
2022/10/10 09:59:43;;;;;;;;;;;18.20;99.90;;;;;;1912890;74;21035;-86
2022/10/10 10:02:39;;;;;;;3.45;2.05;;;18.20;99.90;;;;;;1926383;74;20391;-86
2022/10/10 10:05:34;;;;;;;7.53;3.00;;;18.20;99.90;;;;;;1916361;74;21177;-86
2022/10/10 10:08:34;;;;;;;3.37;2.00;;;18.20;99.90;;;;;;1893564;74;21228;-86
2022/10/10 10:11:32;;;;;;;5.62;2.17;;;18.30;99.90;;;;;;1895766;74;21052;-85
2022/10/10 10:14:26;;;;;;;;;;;18.30;99.90;;;;;;1905922;74;21134;-85
2022/10/10 10:17:25;;;;;;;3.17;2.08;;;18.30;99.90;;;;;;1884425;76;20139;-85
2022/10/10 10:20:38;;;;;;;;;;;18.40;99.90;;;;;;1899550;75;21510;-86
2022/10/10 10:23:36;;;;;;;2.33;2.10;;;18.50;99.90;;;;;;1896740;75;20207;-86
2022/10/10 10:26:39;;;;;;;6.22;2.45;;;18.70;99.90;;;;;;1859010;76;21115;-85
2022/10/10 10:29:34;;;;;;;3.65;2.05;;;18.70;99.90;;;;;;1889841;75;21069;-85
2022/10/10 10:32:43;;;;;;;2.35;2.00;;;18.80;99.90;;;;;;1885400;75;21459;-87
2022/10/10 10:35:40;;;;;;;3.20;1.98;;;18.90;99.90;;;;;;1861886;76;21054;-85
2022/10/10 10:38:38;;;;;;;3.52;1.70;;;19.00;99.90;;;;;;1917166;75;21098;-85
2022/10/10 10:41:34;;;;;;;3.15;1.95;;;19.10;99.90;;;;;;1881266;74;21046;-85
2022/10/10 10:44:33;;;;;;;3.15;2.10;;;19.10;99.90;;;;;;1907219;74;21149;-86
2022/10/10 10:47:35;;;;;;;4.58;2.33;;;19.10;99.90;;;;;;1885060;74;21105;-85
2022/10/10 10:50:35;;;;;;;2.92;2.27;;;19.20;99.90;;;;;;1888474;75;21382;-87
2022/10/10 10:53:35;;;;;;;3.08;1.95;;;19.30;99.90;;;;;;1858832;76;21073;-86
2022/10/10 10:56:32;;;;;;;4.00;2.25;;;19.40;99.90;;;;;;1838637;77;21080;-85
2022/10/10 10:59:31;;;;;;;3.02;2.27;;;19.50;99.90;;;;;;1899143;75;21106;-85
2022/10/10 11:02:37;;;;;;;2.98;1.72;;;19.60;99.90;;;;;;1860456;76;21067;-87
2022/10/10 11:05:54;;;;;;;2.60;1.90;;;19.60;99.90;;;;;;1906954;75;21162;-86
2022/10/10 11:08:54;;;;;;;5.62;3.42;;;19.60;99.90;;;;;;1884398;76;21132;-85
2022/10/10 11:11:59;;;;;;;5.08;2.58;;;19.60;99.90;;;;;;1906190;75;21089;-86
2022/10/10 11:14:57;;;;;;;4.65;1.70;;;19.60;99.90;;;;;;1887520;74;21202;-86
2022/10/10 11:17:52;;;;;;;3.00;1.50;;;19.60;99.90;;;;;;1847090;77;21214;-85
2022/10/10 11:23:28;;;;;;;2.25;1.87;;;19.70;99.90;;;;;;1941509;72;22292;-87
2022/10/10 11:26:23;;;;;;;5.37;1.57;;;19.80;99.90;;;;;;1895679;75;21233;-86
2022/10/10 11:29:18;;;;;;;2.30;1.80;;;19.90;99.90;;;;;;1893765;75;21098;-86
2022/10/10 11:32:13;;;;;;;3.60;1.70;;;20.00;99.90;;;;;;1904729;75;21055;-86
2022/10/10 11:35:15;;;;;;;3.72;1.57;;;20.00;99.90;;;;;;1902692;75;21062;-86
2022/10/10 11:38:13;;;;;;;2.75;1.70;;;20.10;99.90;;;;;;1884709;76;21104;-86
2022/10/10 11:41:11;;;;;;;4.65;1.55;;;20.10;99.90;;;;;;1906602;75;21083;-86
2022/10/10 11:44:07;;;;;;;2.55;1.50;;;20.20;99.90;;;;;;1883838;76;21240;-86
2022/10/10 11:47:01;;;;;;;2.00;1.40;;;20.30;99.90;;;;;;1880145;76;21675;-86
2022/10/10 11:49:57;;;;;;;3.25;1.60;;;20.10;99.90;;;;;;1894742;75;21102;-85
2022/10/10 11:52:53;;;;;;;3.15;1.85;;;20.20;99.90;;;;;;1884849;76;21093;-86
2022/10/10 11:55:49;;;;;;;3.25;2.00;;;20.20;99.90;;;;;;1884236;76;21123;-86
2022/10/10 11:58:49;;;;;;;3.87;2.00;;;20.30;99.90;;;;;;1913202;75;21167;-85
2022/10/10 12:01:44;;;;;;;4.58;1.90;;;20.40;99.90;;;;;;1915254;75;21054;-86
2022/10/10 12:04:37;;;;;;;6.47;2.00;;;20.40;99.90;;;;;;1883717;76;21130;-86
2022/10/10 12:07:31;;;;;;;5.00;2.30;;;20.50;99.90;;;;;;1899084;75;21096;-86
2022/10/10 12:10:25;;;;;;;5.10;2.10;;;20.50;99.90;;;;;;1895391;75;21130;-85
2022/10/10 12:13:33;;;;;;;4.55;2.00;;;20.70;99.90;;;;;;1888487;75;21486;-85
2022/10/10 12:19:18;;;;;;;4.33;2.12;;;20.90;99.90;;;;;;1954573;72;22134;-86
2022/10/10 12:22:16;;;;;;;5.95;2.10;;;20.90;99.90;;;;;;1934239;73;21051;-85
2022/10/10 12:25:29;;;;;;;2.70;1.62;;;21.00;99.90;;;;;;1918885;75;21051;-87
2022/10/10 12:28:31;;;;;;;7.10;1.80;;;21.10;99.90;;;;;;1918003;75;21544;-85
2022/10/10 12:31:36;;;;;;;3.83;1.15;;;21.20;99.90;;;;;;1917655;75;21210;-86
2022/10/10 12:34:44;;;;;;;2.67;1.30;;;21.20;99.90;;;;;;1940075;73;21196;-85
2022/10/10 12:37:39;;;;;;;1.15;0.90;;;21.40;99.90;;;;;;1917717;75;21110;-85
2022/10/10 12:40:30;;;;;;;3.40;0.93;;;21.40;99.90;;;;;;1917559;75;21167;-85
2022/10/10 12:43:24;;;;;;;0.90;0.60;;;21.50;99.90;;;;;;1917607;75;21062;-85
2022/10/10 12:46:28;;;;;;;1.32;0.70;;;21.50;99.90;;;;;;1917582;75;21051;-85
2022/10/10 12:49:23;;;;;;;4.60;1.20;;;21.50;99.90;;;;;;1917759;75;21058;-85
2022/10/10 12:55:06;;;;;;;3.15;0.85;;;21.70;99.90;;;;;;1954007;72;22221;-85
2022/10/10 12:58:00;;;;;;;2.25;0.75;;;21.70;99.90;;;;;;1902659;75;21055;-85
2022/10/10 13:00:53;;;;;;;1.60;0.90;;;21.90;99.90;;;;;;1898252;75;21096;-85
2022/10/10 13:06:30;;;;;;;1.55;1.20;;;21.90;99.90;;;;;;1944699;72;22205;-85
2022/10/10 13:09:24;;;;;;;2.65;1.20;;;22.00;99.90;;;;;;1891696;75;21060;-86
2022/10/10 13:12:25;;;;;;;3.05;0.90;;;22.00;99.90;;;;;;1887339;75;21051;-85
2022/10/10 13:15:21;;;;;;;1.50;0.80;;;22.10;99.90;;;;;;1884803;75;21146;-86
2022/10/10 13:18:13;;;;;;;1.05;0.80;;;22.10;99.90;;;;;;1883989;75;21097;-86
2022/10/10 13:21:10;;;;;;;2.98;1.52;;;22.10;99.90;;;;;;1881751;75;21121;-86
2022/10/10 13:24:05;;;;;;;5.35;1.12;;;22.10;99.90;;;;;;1887201;75;21047;-86
2022/10/10 13:26:57;;;;;;;2.40;1.12;;;22.20;99.90;;;;;;1886613;75;21168;-86
2022/10/10 13:29:49;;;;;;;1.55;1.10;;;22.30;99.90;;;;;;1875140;75;21178;-86
2022/10/10 13:32:41;;;;;;;1.70;0.90;;;22.20;99.90;;;;;;1894935;75;21052;-86
2022/10/10 13:35:33;;;;;;;1.47;0.82;;;22.10;99.90;;;;;;1873173;76;21069;-85
2022/10/10 13:38:26;;;;;;;1.65;0.80;;;22.20;99.90;;;;;;1888169;75;21170;-86
2022/10/10 13:41:19;;;;;;;2.65;1.10;;;22.30;99.90;;;;;;1895265;75;21156;-85
2022/10/10 13:44:15;;;;;;;2.02;1.67;;;22.40;99.90;;;;;;1894630;75;21087;-86
2022/10/10 13:47:46;;;;;;;1.37;1.20;;;22.60;99.90;;;;;;1894731;75;21201;-86
2022/10/10 13:50:53;;;;;;;2.17;1.00;;;22.70;99.90;;;;;;1894704;75;21046;-86
2022/10/10 13:53:51;;;;;;;2.62;0.60;;;22.80;99.90;;;;;;1895055;75;21057;-85
2022/10/10 13:56:42;;;;;;;1.60;0.85;;;22.70;99.90;;;;;;1894242;75;21102;-86
2022/10/10 13:59:35;;;;;;;4.75;1.62;;;22.80;99.90;;;;;;1889169;75;21114;-86
2022/10/10 14:02:31;;;;;;;3.95;1.62;;;22.80;99.90;;;;;;1878131;75;21066;-85
2022/10/10 14:05:27;;;;;;;2.75;1.50;;;22.80;99.90;;;;;;1879044;74;21178;-86
2022/10/10 14:08:21;;;;;;;3.72;2.50;;;22.90;99.90;;;;;;1888245;75;21276;-86
2022/10/10 14:11:19;;;;;;;2.87;0.80;;;22.90;99.90;;;;;;1910214;75;21095;-85
2022/10/10 14:30:47;;;;;;;2.58;0.98;;;25.90;99.90;;;;;;1958297;72;22542;-86
2022/10/10 14:33:39;;;;;;;1.72;0.80;;;26.10;99.90;;;;;;1890388;75;21090;-86
2022/10/10 14:36:31;;;;;;;1.52;0.68;;;25.90;99.90;;;;;;1884431;75;21127;-86
2022/10/10 14:39:23;;;;;;;1.60;0.90;;;24.70;99.90;;;;;;1899165;75;21149;-85
2022/10/10 14:42:17;;;;;;;3.98;0.95;;;23.60;99.90;;;;;;1873037;75;21101;-86
2022/10/10 14:45:13;;;;;;;1.70;0.75;;;23.30;99.90;;;;;;1873087;75;21115;-85
2022/10/10 14:48:06;;;;;;;1.17;0.70;;;23.00;99.90;;;;;;1886618;75;21081;-85
2022/10/10 14:50:58;;;;;;;2.30;0.88;;;22.90;99.90;;;;;;1896432;75;21189;-85
2022/10/10 14:53:50;;;;;;;2.85;0.90;;;22.70;99.90;;;;;;1894486;75;21056;-85
2022/10/10 14:56:45;;;;;;;2.45;0.90;;;22.50;99.90;;;;;;1872981;75;21173;-85
2022/10/10 14:59:41;;;;;;;2.52;1.00;;;22.30;99.90;;;;;;1873150;76;21105;-85
2022/10/10 15:02:37;;;;;;;2.80;1.00;;;22.10;99.90;;;;;;1885970;75;21196;-85
2022/10/10 15:05:30;;;;;;;3.98;1.10;;;22.00;99.90;;;;;;1896645;75;21185;-85
2022/10/10 15:08:21;;;;;;;2.98;0.85;;;22.00;99.90;;;;;;1894821;75;21055;-85
2022/10/10 15:14:05;;;;;;;7.22;1.65;;;22.10;99.90;;;;;;1955730;72;22204;-85
2022/10/10 15:16:57;;;;;;;3.65;1.40;;;22.00;99.90;;;;;;1886672;74;21051;-85
2022/10/10 15:19:49;;;;;;;2.87;1.20;;;21.90;99.90;;;;;;1906853;75;21166;-85
2022/10/10 15:22:41;;;;;;;4.65;1.42;;;21.90;99.90;;;;;;1884810;75;21062;-85
2022/10/10 15:28:24;;;;;;;5.78;1.07;;;21.80;99.90;;;;;;1945759;72;22273;-85
2022/10/10 15:31:19;;;;;;;2.30;1.20;;;21.70;99.90;;;;;;1905584;75;21165;-85
2022/10/10 15:34:10;;;;;;;3.58;1.00;;;21.70;99.90;;;;;;1906820;75;21113;-85
2022/10/10 15:37:01;;;;;;;3.83;1.10;;;21.70;99.90;;;;;;1904659;75;21062;-86
2022/10/10 15:39:53;;;;;;;2.37;1.20;;;21.70;99.90;;;;;;1899919;75;21129;-86
2022/10/10 15:42:46;;;;;;;3.15;1.00;;;21.60;99.90;;;;;;1917413;75;21120;-86
2022/10/10 15:45:39;;;;;;;2.58;1.00;;;21.50;99.90;;;;;;1912230;75;21096;-86
2022/10/10 15:48:32;;;;;;;4.03;1.17;;;21.50;99.90;;;;;;1884739;76;21075;-86
2022/10/10 15:54:10;;;;;;;4.67;1.20;;;21.30;99.90;;;;;;1958043;72;22151;-85
2022/10/10 15:57:02;;;;;;;1.67;0.98;;;21.30;99.90;;;;;;1899437;75;21052;-86
2022/10/10 15:59:54;;;;;;;3.47;1.40;;;21.30;99.90;;;;;;1895193;75;21138;-86
2022/10/10 16:02:46;;;;;;;3.47;1.10;;;21.30;99.90;;;;;;1892305;75;21169;-86
2022/10/10 16:05:40;;;;;;;2.33;1.37;;;21.30;99.90;;;;;;1905476;75;21125;-86
2022/10/10 16:08:37;;;;;;;3.20;1.30;;;21.20;99.90;;;;;;1874611;75;21178;-87
2022/10/10 16:11:35;;;;;;;1.92;0.93;;;21.10;99.90;;;;;;1894779;75;21229;-85
2022/10/10 16:14:28;;;;;;;2.08;1.20;;;21.10;99.90;;;;;;1895900;75;21048;-87
2022/10/10 16:17:19;;;;;;;3.30;1.37;;;21.10;99.90;;;;;;1905418;75;21098;-85
2022/10/10 16:20:13;;;;;;;4.97;1.22;;;21.10;99.90;;;;;;1892351;75;21114;-85
2022/10/10 16:23:05;;;;;;;6.05;2.20;;;21.10;99.90;;;;;;1879010;75;21064;-85
2022/10/10 16:26:03;;;;;;;3.40;2.00;;;21.00;99.90;;;;;;1883680;75;21106;-86
2022/10/10 16:29:05;;;;;;;5.53;2.17;;;20.90;99.90;;;;;;1886350;75;21217;-86
2022/10/10 16:32:18;;;;;;;7.30;2.40;;;20.80;99.90;;;;;;1888988;75;21324;-85
2022/10/10 16:35:11;;;;;;;3.05;2.10;;;20.70;99.90;;;;;;1889098;75;21153;-85
2022/10/10 16:38:02;;;;;;;7.37;2.95;;;20.60;99.90;;;;;;1884485;75;21055;-85
2022/10/10 16:41:02;;;;;;;2.95;2.08;;;20.50;99.90;;;;;;1883681;75;21052;-85
2022/10/10 16:43:55;;;;;;;5.67;2.25;;;20.30;99.90;;;;;;1883308;75;21130;-85
2022/10/10 16:46:53;;;;;;;4.78;2.33;;;20.30;99.90;;;;;;1885758;75;21056;-85
2022/10/10 16:49:47;;;;;;;3.95;2.05;;;20.20;99.90;;;;;;1872761;75;21174;-86
2022/10/10 16:52:41;;;;;;;3.40;1.82;;;20.20;99.90;;;;;;1873092;75;21053;-85
2022/10/10 16:55:35;;;;;;;5.90;1.80;;;20.10;99.90;;;;;;1884617;75;21111;-85
2022/10/10 16:58:27;;;;;;;2.83;1.82;;;20.00;99.90;;;;;;1872765;76;21144;-85
2022/10/10 17:01:21;;;;;;;2.52;1.75;;;19.90;99.90;;;;;;1885020;75;21095;-85
2022/10/10 17:04:12;;;;;;;4.00;2.02;;;19.90;99.90;;;;;;1886006;75;21051;-85
2022/10/10 17:07:04;;;;;;;6.47;2.10;;;19.70;99.90;;;;;;1883242;75;21456;-85
2022/10/10 17:10:06;;;;;;;4.90;1.82;;;19.70;99.90;;;;;;1882932;75;21621;-85
2022/10/10 17:13:12;;;;;;;4.37;2.10;;;19.50;99.90;;;;;;1895445;75;21121;-85
2022/10/10 17:16:07;;;;;;;3.58;1.87;;;19.30;99.90;;;;;;1904837;75;21055;-85
2022/10/10 17:19:01;;;;;;;4.62;2.12;;;19.20;99.90;;;;;;1888360;75;21189;-85
2022/10/10 17:21:53;;;;;;;3.33;1.95;;;19.20;99.90;;;;;;1893055;75;21201;-85
2022/10/10 17:24:45;;;;;;;5.60;2.40;;;19.10;99.90;;;;;;1894273;75;21058;-86
2022/10/10 17:27:40;;;;;;;4.42;2.15;;;19.00;99.90;;;;;;1894179;75;21082;-85
2022/10/10 17:30:31;;;;;;;4.80;2.40;;;19.00;99.90;;;;;;1890892;75;21498;-85
2022/10/10 17:33:22;;;;;;;3.77;2.17;;;19.00;99.90;;;;;;1885921;75;21391;-85
2022/10/10 17:36:17;;;;;;;6.10;2.22;;;18.90;99.90;;;;;;1874544;75;21153;-85